createdAt,value
2019-02-10T00:02:53.731Z,999.10
2019-02-10T00:07:49.677Z,999.18
2019-02-10T00:12:44.944Z,998.92
2019-02-10T00:17:40.699Z,998.83
2019-02-10T00:22:36.362Z,998.72
2019-02-10T00:27:32.356Z,998.61
2019-02-10T00:32:27.937Z,998.54
2019-02-10T00:37:23.672Z,998.45
2019-02-10T00:42:19.437Z,998.43
2019-02-10T00:47:15.130Z,998.33
2019-02-10T00:52:11.880Z,998.12
2019-02-10T00:57:07.305Z,998.14
2019-02-10T01:02:03.061Z,998.01
2019-02-10T01:06:58.835Z,997.84
2019-02-10T01:11:54.442Z,997.71
2019-02-10T01:16:51.577Z,997.81
2019-02-10T01:21:48.186Z,997.79
2019-02-10T01:26:44.548Z,997.67
2019-02-10T01:31:40.951Z,997.54
2019-02-10T01:36:37.424Z,997.41
2019-02-10T01:41:33.549Z,997.33
2019-02-10T01:46:29.397Z,997.10
2019-02-10T01:51:25.856Z,997.03
2019-02-10T01:56:21.436Z,996.85
2019-02-10T02:01:17.333Z,996.75
2019-02-10T02:06:13.479Z,996.62
2019-02-10T02:11:09.031Z,996.50
2019-02-10T02:16:04.879Z,996.44
2019-02-10T02:21:00.731Z,996.33
2019-02-10T02:25:56.611Z,996.30
2019-02-10T02:30:52.330Z,996.12
2019-02-10T02:35:48.799Z,995.98
2019-02-10T02:40:45.257Z,995.89
2019-02-10T02:45:40.953Z,995.73
2019-02-10T02:50:36.772Z,995.72
2019-02-10T02:55:32.968Z,995.62
2019-02-10T03:00:28.615Z,995.46
2019-02-10T03:05:24.373Z,995.35
2019-02-10T03:10:21.024Z,995.26
2019-02-10T03:15:16.109Z,994.93
2019-02-10T03:20:12.019Z,994.63
2019-02-10T03:25:07.504Z,994.57
2019-02-10T03:30:03.018Z,994.60
2019-02-10T03:34:58.972Z,994.40
2019-02-10T03:39:55.239Z,994.22
2019-02-10T03:44:51.261Z,994.17
2019-02-10T03:49:47.958Z,994.02
2019-02-10T03:54:43.126Z,993.78
2019-02-10T03:59:39.074Z,993.70
2019-02-10T04:04:35.269Z,993.53
2019-02-10T04:09:30.868Z,993.36
2019-02-10T04:14:26.634Z,993.19
2019-02-10T04:19:22.973Z,993.05
2019-02-10T04:24:18.663Z,993.00
2019-02-10T04:29:14.590Z,992.84
2019-02-10T04:34:10.263Z,992.74
2019-02-10T04:39:06.942Z,992.47
2019-02-10T04:44:03.258Z,992.35
2019-02-10T04:48:58.887Z,992.22
2019-02-10T04:53:54.559Z,992.00
2019-02-10T04:58:51.019Z,991.80
2019-02-10T05:03:46.747Z,991.56
2019-02-10T05:08:42.389Z,991.34
2019-02-10T05:13:39.130Z,991.13
2019-02-10T05:18:34.322Z,990.95
2019-02-10T05:23:29.907Z,990.81
2019-02-10T05:28:25.535Z,990.58
2019-02-10T05:33:21.266Z,990.31
2019-02-10T05:38:17.716Z,990.04
2019-02-10T05:43:13.359Z,989.75
2019-02-10T05:48:09.709Z,989.64
2019-02-10T05:53:05.404Z,989.38
2019-02-10T05:58:01.698Z,989.16
2019-02-10T06:02:58.260Z,988.91
2019-02-10T06:07:53.768Z,988.70
2019-02-10T06:12:49.834Z,988.55
2019-02-10T06:17:45.283Z,988.39
2019-02-10T06:22:40.940Z,988.21
2019-02-10T06:27:36.668Z,987.84
2019-02-10T06:32:32.462Z,987.75
2019-02-10T06:37:28.591Z,987.89
2019-02-10T06:42:24.312Z,987.81
2019-02-10T06:47:20.727Z,987.56
2019-02-10T06:52:17.225Z,987.57
2019-02-10T06:57:13.103Z,987.34
2019-02-10T07:02:08.946Z,987.25
2019-02-10T07:07:04.474Z,987.29
2019-02-10T07:12:00.350Z,986.98
2019-02-10T07:16:56.270Z,986.90
2019-02-10T07:21:52.031Z,986.70
2019-02-10T07:26:48.043Z,986.54
2019-02-10T07:31:43.901Z,986.43
2019-02-10T07:36:39.796Z,986.31
2019-02-10T07:41:35.537Z,986.01
2019-02-10T07:46:31.243Z,985.79
2019-02-10T07:51:27.819Z,985.67
2019-02-10T07:56:23.723Z,985.37
2019-02-10T08:01:19.632Z,985.22
2019-02-10T08:06:15.478Z,984.93
2019-02-10T08:11:10.985Z,984.95
2019-02-10T08:16:06.770Z,984.90
2019-02-10T08:21:02.645Z,984.82
2019-02-10T08:25:58.418Z,984.66
2019-02-10T08:30:55.213Z,984.48
2019-02-10T08:35:50.777Z,984.45
2019-02-10T08:40:46.615Z,984.29
2019-02-10T08:45:42.470Z,984.14
2019-02-10T08:50:38.118Z,984.15
2019-02-10T08:55:34.046Z,983.93
2019-02-10T09:00:29.867Z,983.75
2019-02-10T09:05:26.203Z,983.67
2019-02-10T09:10:23.170Z,983.62
2019-02-10T09:15:18.829Z,983.52
2019-02-10T09:20:14.490Z,983.50
2019-02-10T09:25:10.517Z,983.27
2019-02-10T09:30:06.371Z,983.34
2019-02-10T09:35:02.088Z,983.06
2019-02-10T09:39:57.947Z,983.08
2019-02-10T09:44:53.784Z,983.22
2019-02-10T09:49:50.729Z,983.18
2019-02-10T09:54:46.300Z,983.02
2019-02-10T09:59:41.963Z,983.07
2019-02-10T10:04:37.758Z,983.01
2019-02-10T10:09:33.628Z,982.93
2019-02-10T10:14:30.851Z,982.81
2019-02-10T10:19:26.924Z,982.85
2019-02-10T10:24:22.712Z,982.77
2019-02-10T10:29:18.578Z,982.76
2019-02-10T10:34:15.292Z,982.68
2019-02-10T10:39:10.897Z,982.56
2019-02-10T10:44:06.681Z,982.45
2019-02-10T10:49:02.535Z,982.33
2019-02-10T10:53:58.573Z,982.40
2019-02-10T10:58:54.456Z,982.39
2019-02-10T11:03:50.315Z,982.34
2019-02-10T11:08:46.234Z,982.40
2019-02-10T11:13:42.098Z,982.28
2019-02-10T11:18:37.805Z,982.24
2019-02-10T11:23:33.692Z,982.05
2019-02-10T11:28:29.549Z,982.04
2019-02-10T11:33:26.499Z,982.08
2019-02-10T11:38:22.608Z,981.81
2019-02-10T11:43:18.376Z,981.80
2019-02-10T11:48:14.056Z,981.78
2019-02-10T11:53:10.877Z,981.73
2019-02-10T11:58:07.002Z,981.67
2019-02-10T12:03:03.089Z,981.66
2019-02-10T12:07:58.564Z,981.64
2019-02-10T12:12:56.311Z,981.60
2019-02-10T12:17:51.898Z,981.55
2019-02-10T12:22:50.158Z,981.64
2019-02-10T12:27:45.418Z,981.56
2019-02-10T12:32:42.362Z,981.55
2019-02-10T12:37:38.759Z,981.64
2019-02-10T12:42:34.238Z,981.65
2019-02-10T12:47:31.314Z,981.54
2019-02-10T12:52:27.861Z,981.64
2019-02-10T12:57:23.584Z,981.77
2019-02-10T13:02:19.482Z,981.75
2019-02-10T13:07:15.047Z,981.69
2019-02-10T13:12:12.249Z,981.80
2019-02-10T13:17:07.614Z,981.94
2019-02-10T13:22:03.424Z,982.03
2019-02-10T13:26:59.180Z,982.01
2019-02-10T13:31:55.974Z,981.98
2019-02-10T13:36:51.524Z,982.02
2019-02-10T13:41:47.041Z,982.03
2019-02-10T13:46:42.799Z,982.07
2019-02-10T13:51:38.837Z,982.06
2019-02-10T13:56:36.626Z,982.16
2019-02-10T14:01:31.879Z,982.23
2019-02-10T14:06:28.261Z,982.36
2019-02-10T14:11:23.897Z,982.39
2019-02-10T14:16:20.723Z,982.48
2019-02-10T14:21:17.129Z,982.45
2019-02-10T14:26:13.763Z,982.37
2019-02-10T14:31:09.743Z,982.40
2019-02-10T14:36:05.457Z,982.51
2019-02-10T14:41:01.682Z,982.42
2019-02-10T14:45:58.482Z,982.45
2019-02-10T14:50:53.820Z,982.53
2019-02-10T14:55:49.854Z,982.69
2019-02-10T15:00:45.889Z,982.66
2019-02-10T15:05:41.697Z,982.70
2019-02-10T15:10:42.032Z,982.68
2019-02-10T15:15:36.722Z,982.68
2019-02-10T15:20:32.836Z,982.67
2019-02-10T15:25:28.451Z,982.70
2019-02-10T15:30:25.077Z,982.76
2019-02-10T15:35:20.557Z,982.74
2019-02-10T15:40:16.033Z,982.75
2019-02-10T15:45:13.120Z,982.82
2019-02-10T15:50:08.627Z,982.94
2019-02-10T15:55:04.336Z,982.92
2019-02-10T16:00:00.182Z,982.95
2019-02-10T16:11:26.581Z,982.96
2019-02-10T16:16:21.028Z,983.02
2019-02-10T16:21:16.768Z,983.14
2019-02-10T16:26:12.410Z,983.34
2019-02-10T16:31:08.042Z,983.41
2019-02-10T16:36:03.694Z,983.29
2019-02-10T16:41:06.130Z,983.41
2019-02-10T16:45:59.384Z,983.42
2019-02-10T16:50:54.847Z,983.52
2019-02-10T16:55:50.484Z,983.58
2019-02-10T17:00:46.146Z,983.70
2019-02-10T17:05:41.663Z,983.69
2019-02-10T17:10:38.648Z,983.93
2019-02-10T17:15:33.995Z,983.96
2019-02-10T17:20:29.652Z,984.07
2019-02-10T17:25:25.172Z,984.24
2019-02-10T17:30:21.684Z,984.37
2019-02-10T17:35:18.612Z,984.50
2019-02-10T17:40:14.811Z,984.70
2019-02-10T17:45:10.153Z,984.80
2019-02-10T17:50:06.248Z,985.00
2019-02-10T17:55:01.844Z,985.11
2019-02-10T17:59:59.187Z,985.25
2019-02-10T18:04:56.286Z,985.38
2019-02-10T18:09:51.501Z,985.53
2019-02-10T18:14:47.756Z,985.54
2019-02-10T18:19:44.267Z,985.78
2019-02-10T18:24:39.904Z,985.83
2019-02-10T18:29:36.694Z,985.92
2019-02-10T18:34:32.949Z,986.16
2019-02-10T18:39:29.243Z,986.24
2019-02-10T18:44:24.921Z,986.32
2019-02-10T18:49:20.482Z,986.45
2019-02-10T18:54:16.745Z,986.70
2019-02-10T18:59:13.381Z,986.60
2019-02-10T19:04:08.749Z,986.79
2019-02-10T19:09:05.292Z,986.98
2019-02-10T19:14:01.495Z,987.08
2019-02-10T19:18:56.791Z,987.29
2019-02-10T19:23:53.318Z,987.45
2019-02-10T19:28:49.615Z,987.57
2019-02-10T19:33:45.986Z,987.67
2019-02-10T19:38:41.383Z,987.81
2019-02-10T19:43:37.055Z,987.96
2019-02-10T19:48:33.118Z,988.08
2019-02-10T19:53:29.292Z,988.25
2019-02-10T19:58:24.973Z,988.37
2019-02-10T20:03:20.331Z,988.39
2019-02-10T20:08:16.373Z,988.65
2019-02-10T20:13:11.723Z,988.72
2019-02-10T20:18:08.392Z,988.83
2019-02-10T20:23:04.823Z,989.09
2019-02-10T20:28:01.089Z,989.18
2019-02-10T20:32:57.412Z,989.30
2019-02-10T20:37:52.631Z,989.47
2019-02-10T20:42:48.852Z,989.64
2019-02-10T20:47:44.593Z,989.88
2019-02-10T20:52:46.172Z,989.93
2019-02-10T20:57:39.646Z,990.15
2019-02-10T21:02:36.305Z,990.30
2019-02-10T21:07:32.659Z,990.42
2019-02-10T21:12:27.984Z,990.73
2019-02-10T21:17:24.562Z,990.78
2019-02-10T21:22:19.885Z,990.89
2019-02-10T21:27:16.437Z,991.08
2019-02-10T21:32:12.895Z,991.19
2019-02-10T21:37:09.093Z,991.34
2019-02-10T21:42:05.247Z,991.52
2019-02-10T21:47:00.986Z,991.61
2019-02-10T21:51:56.716Z,991.87
2019-02-10T21:56:53.815Z,991.91
2019-02-10T22:01:49.113Z,992.16
2019-02-10T22:06:44.970Z,992.26
2019-02-10T22:11:40.239Z,992.37
2019-02-10T22:16:36.073Z,992.48
2019-02-10T22:21:31.467Z,992.61
2019-02-10T22:26:27.145Z,992.73
2019-02-10T22:31:22.999Z,992.80
2019-02-10T22:36:18.440Z,992.90
2019-02-10T22:41:14.340Z,993.01
2019-02-10T22:46:09.667Z,993.15
2019-02-10T22:51:05.398Z,993.29
2019-02-10T22:56:00.955Z,993.56
2019-02-10T23:00:56.812Z,993.72
2019-02-10T23:05:52.525Z,993.89
2019-02-10T23:10:48.301Z,994.05
2019-02-10T23:15:44.712Z,994.07
2019-02-10T23:20:40.139Z,994.20
2019-02-10T23:25:35.954Z,994.42
2019-02-10T23:30:32.665Z,994.54
2019-02-10T23:35:28.321Z,994.78
2019-02-10T23:40:23.941Z,994.93
2019-02-10T23:45:19.622Z,995.08
2019-02-10T23:50:15.133Z,995.27
2019-02-10T23:55:11.850Z,995.40
